createdAt,value
2023-05-01T00:02:27.448Z,99387.69
2023-05-01T00:04:56.445Z,99396.47
2023-05-01T00:07:25.516Z,99388.81
2023-05-01T00:09:54.454Z,99387.72
2023-05-01T00:12:23.310Z,99384.31
2023-05-01T00:14:51.981Z,99390.44
2023-05-01T00:17:22.824Z,99383.19
2023-05-01T00:19:55.222Z,99385.34
2023-05-01T00:22:24.065Z,99390.34
2023-05-01T00:24:52.724Z,99391.59
2023-05-01T00:27:21.387Z,99381.63
2023-05-01T00:29:50.426Z,99377.16
2023-05-01T00:32:19.397Z,99377.56
2023-05-01T00:34:48.569Z,99377.72
2023-05-01T00:37:18.729Z,99377.03
2023-05-01T00:39:47.368Z,99374.91
2023-05-01T00:42:16.055Z,99369.00
2023-05-01T00:44:44.722Z,99368.16
2023-05-01T00:47:14.013Z,99367.25
2023-05-01T00:49:44.038Z,99363.84
2023-05-01T00:52:13.363Z,99362.56
2023-05-01T00:54:43.390Z,99359.56
2023-05-01T00:57:12.672Z,99354.06
2023-05-01T00:59:41.731Z,99355.69
2023-05-01T01:02:12.066Z,99351.03
2023-05-01T01:04:42.968Z,99345.91
2023-05-01T01:07:22.070Z,99349.03
2023-05-01T01:10:06.491Z,99345.72
2023-05-01T01:12:52.216Z,99340.94
2023-05-01T01:15:30.867Z,99349.19
2023-05-01T01:18:11.226Z,99344.31
2023-05-01T01:20:46.752Z,99338.81
2023-05-01T01:24:23.663Z,99342.19
2023-05-01T01:27:51.224Z,99340.81
2023-05-01T01:30:52.424Z,99332.59
2023-05-01T01:34:01.754Z,99330.41
2023-05-01T01:36:48.823Z,99325.84
2023-05-01T01:39:31.406Z,99326.78
2023-05-01T01:42:01.626Z,99316.00
2023-05-01T01:44:39.287Z,99319.78
2023-05-01T01:47:13.046Z,99306.19
2023-05-01T01:49:51.363Z,99303.00
2023-05-01T01:52:23.320Z,99302.19
2023-05-01T01:54:58.660Z,99301.81
2023-05-01T01:57:30.327Z,99298.81
2023-05-01T02:00:00.218Z,99295.97
2023-05-01T02:02:31.874Z,99296.34
2023-05-01T02:05:02.897Z,99297.47
2023-05-01T02:07:33.401Z,99294.84
2023-05-01T02:10:05.554Z,99289.94
2023-05-01T02:12:35.521Z,99296.72
2023-05-01T02:15:08.073Z,99283.41
2023-05-01T02:17:39.409Z,99296.66
2023-05-01T02:20:12.729Z,99291.78
2023-05-01T02:22:43.088Z,99289.47
2023-05-01T02:25:14.995Z,99278.16
2023-05-01T02:27:52.404Z,99283.72
2023-05-01T02:30:21.125Z,99283.97
2023-05-01T02:32:49.943Z,99274.16
2023-05-01T02:35:20.402Z,99275.03
2023-05-01T02:37:50.390Z,99273.69
2023-05-01T02:40:19.963Z,99272.78
2023-05-01T02:42:52.874Z,99274.97
2023-05-01T02:45:26.868Z,99271.88
2023-05-01T02:48:00.602Z,99271.16
2023-05-01T02:50:32.584Z,99270.72
2023-05-01T02:53:03.278Z,99261.66
2023-05-01T02:55:52.255Z,99261.19
2023-05-01T02:58:22.220Z,99259.38
2023-05-01T03:00:51.673Z,99257.91
2023-05-01T03:03:22.086Z,99266.34
2023-05-01T03:05:52.537Z,99249.28
2023-05-01T03:08:21.233Z,99243.00
2023-05-01T03:10:49.910Z,99251.97
2023-05-01T03:13:18.577Z,99245.31
2023-05-01T03:15:47.399Z,99243.50
2023-05-01T03:18:16.052Z,99244.84
2023-05-01T03:20:54.740Z,99240.19
2023-05-01T03:23:23.636Z,99243.50
2023-05-01T03:25:52.894Z,99236.91
2023-05-01T03:28:23.584Z,99237.31
2023-05-01T03:30:54.330Z,99235.06
2023-05-01T03:33:23.450Z,99234.97
2023-05-01T03:36:04.103Z,99230.50
2023-05-01T03:38:34.869Z,99231.94
2023-05-01T03:41:12.340Z,99224.56
2023-05-01T03:43:59.476Z,99233.06
2023-05-01T03:46:39.144Z,99227.31
2023-05-01T03:49:09.384Z,99227.69
2023-05-01T03:51:46.485Z,99235.28
2023-05-01T03:54:15.347Z,99228.66
2023-05-01T03:57:13.123Z,99223.66
2023-05-01T03:59:43.815Z,99224.66
2023-05-01T04:02:13.451Z,99224.47
2023-05-01T04:04:42.271Z,99220.28
2023-05-01T04:07:12.857Z,99220.09
2023-05-01T04:09:42.076Z,99218.06
2023-05-01T04:12:11.005Z,99211.75
2023-05-01T04:14:39.912Z,99208.03
2023-05-01T04:17:09.214Z,99200.09
2023-05-01T04:19:41.558Z,99199.13
2023-05-01T04:22:14.626Z,99203.75
2023-05-01T04:24:44.108Z,99201.38
2023-05-01T04:27:14.248Z,99188.84
2023-05-01T04:29:44.206Z,99185.38
2023-05-01T04:32:13.968Z,99192.59
2023-05-01T04:34:44.158Z,99192.16
2023-05-01T04:37:14.759Z,99186.91
2023-05-01T04:39:44.678Z,99186.84
2023-05-01T04:42:14.272Z,99182.03
2023-05-01T04:44:43.923Z,99184.06
2023-05-01T04:47:13.476Z,99190.91
2023-05-01T04:49:42.786Z,99184.94
2023-05-01T04:52:14.751Z,99189.78
2023-05-01T04:54:54.438Z,99179.69
2023-05-01T04:57:26.422Z,99192.13
2023-05-01T04:59:56.262Z,99183.41
2023-05-01T05:02:25.983Z,99187.97
2023-05-01T05:04:56.524Z,99183.81
2023-05-01T05:07:28.780Z,99180.91
2023-05-01T05:10:21.148Z,99187.19
2023-05-01T05:13:02.117Z,99182.28
2023-05-01T05:15:32.143Z,99179.72
2023-05-01T05:18:01.287Z,99173.66
2023-05-01T05:20:31.842Z,99176.78
2023-05-01T05:23:02.131Z,99183.41
2023-05-01T05:25:30.932Z,99172.47
2023-05-01T05:28:01.866Z,99161.44
2023-05-01T05:30:31.517Z,99165.97
2023-05-01T05:33:00.770Z,99156.81
2023-05-01T05:35:29.582Z,99158.34
2023-05-01T05:37:58.651Z,99158.16
2023-05-01T05:40:35.002Z,99154.69
2023-05-01T05:43:07.338Z,99146.66
2023-05-01T05:45:36.280Z,99152.66
2023-05-01T05:48:06.123Z,99153.91
2023-05-01T05:50:38.129Z,99150.13
2023-05-01T05:53:10.011Z,99152.78
2023-05-01T05:55:45.586Z,99142.97
2023-05-01T05:58:20.074Z,99142.97
2023-05-01T06:00:53.049Z,99140.13
2023-05-01T06:03:22.016Z,99130.34
2023-05-01T06:05:52.731Z,99135.88
2023-05-01T06:08:23.274Z,99138.31
2023-05-01T06:10:54.132Z,99133.41
2023-05-01T06:13:23.102Z,99128.66
2023-05-01T06:15:52.522Z,99125.59
2023-05-01T06:18:21.814Z,99119.81
2023-05-01T06:20:52.078Z,99129.47
2023-05-01T06:23:20.755Z,99122.66
2023-05-01T06:26:06.462Z,99121.81
2023-05-01T06:28:35.365Z,99130.19
2023-05-01T06:31:05.632Z,99122.34
2023-05-01T06:33:39.031Z,99119.63
2023-05-01T06:36:31.488Z,99116.84
2023-05-01T06:39:00.538Z,99115.94
2023-05-01T06:41:30.827Z,99104.38
2023-05-01T06:43:59.870Z,99106.91
2023-05-01T06:46:29.135Z,99100.00
2023-05-01T06:48:57.894Z,99097.00
2023-05-01T06:51:27.798Z,99095.97
2023-05-01T06:53:58.361Z,99091.13
2023-05-01T06:56:27.153Z,99085.34
2023-05-01T06:58:57.342Z,99086.81
2023-05-01T07:01:26.357Z,99079.53
2023-05-01T07:04:01.017Z,99083.88
2023-05-01T07:06:30.342Z,99078.16
2023-05-01T07:08:59.520Z,99074.69
2023-05-01T07:11:28.469Z,99070.31
2023-05-01T07:13:58.694Z,99071.63
2023-05-01T07:16:27.553Z,99066.69
2023-05-01T07:18:57.081Z,99068.56
2023-05-01T07:21:25.941Z,99064.38
2023-05-01T07:23:54.623Z,99059.97
2023-05-01T07:26:23.911Z,99060.09
2023-05-01T07:28:52.899Z,99051.00
2023-05-01T07:31:23.704Z,99051.69
2023-05-01T07:33:54.261Z,99052.25
2023-05-01T07:36:24.052Z,99049.69
2023-05-01T07:38:52.811Z,99047.25
2023-05-01T07:41:22.751Z,99047.44
2023-05-01T07:43:51.385Z,99041.72
2023-05-01T07:46:20.164Z,99052.16
2023-05-01T07:48:50.303Z,99051.38
2023-05-01T07:51:19.475Z,99044.78
2023-05-01T07:53:49.502Z,99041.16
2023-05-01T07:56:18.157Z,99038.66
2023-05-01T07:58:46.852Z,99040.31
2023-05-01T08:01:15.561Z,99042.41
2023-05-01T08:03:44.225Z,99043.41
2023-05-01T08:06:14.548Z,99032.75
2023-05-01T08:08:43.551Z,99045.25
2023-05-01T08:11:13.242Z,99026.63
2023-05-01T08:13:42.462Z,99023.03
2023-05-01T08:16:11.235Z,99021.63
2023-05-01T08:18:40.699Z,99029.31
2023-05-01T08:21:09.446Z,99027.50
2023-05-01T08:23:39.769Z,99027.59
2023-05-01T08:26:12.224Z,99021.41
2023-05-01T08:28:42.268Z,99027.75
2023-05-01T08:31:11.352Z,99026.25
2023-05-01T08:33:42.145Z,99022.66
2023-05-01T08:36:11.449Z,99027.59
2023-05-01T08:38:41.586Z,99028.19
2023-05-01T08:41:11.076Z,99020.28
2023-05-01T08:43:41.025Z,99020.34
2023-05-01T08:46:14.323Z,99020.66
2023-05-01T08:48:45.719Z,99024.72
2023-05-01T08:51:21.245Z,99017.28
2023-05-01T08:53:54.615Z,99021.41
2023-05-01T08:56:24.636Z,99018.03
2023-05-01T08:58:56.855Z,99019.63
2023-05-01T09:01:27.167Z,99018.31
2023-05-01T09:03:58.451Z,99010.00
2023-05-01T09:06:29.706Z,99008.22
2023-05-01T09:09:00.143Z,99004.78
2023-05-01T09:11:29.947Z,99007.56
2023-05-01T09:13:58.976Z,99004.91
2023-05-01T09:16:28.140Z,99006.34
2023-05-01T09:18:59.640Z,98998.81
2023-05-01T09:21:31.746Z,98997.19
2023-05-01T09:24:02.873Z,98995.94
2023-05-01T09:26:31.839Z,98989.53
2023-05-01T09:29:00.620Z,98983.59
2023-05-01T09:31:32.768Z,98970.66
2023-05-01T09:34:03.582Z,98974.44
2023-05-01T09:36:34.595Z,98970.38
2023-05-01T09:39:05.225Z,98982.00
2023-05-01T09:41:34.148Z,98977.66
2023-05-01T09:44:03.014Z,98971.47
2023-05-01T09:46:43.929Z,98970.63
2023-05-01T09:49:12.992Z,98960.03
2023-05-01T09:51:41.658Z,98961.94
2023-05-01T09:54:21.137Z,98949.97
2023-05-01T09:56:51.194Z,98955.81
2023-05-01T09:59:22.164Z,98957.53
2023-05-01T10:01:52.465Z,98947.91
2023-05-01T10:04:32.020Z,98935.47
2023-05-01T10:07:14.370Z,98943.63
2023-05-01T10:09:44.374Z,98943.44
2023-05-01T10:12:24.821Z,98942.53
2023-05-01T10:14:55.185Z,98930.28
2023-05-01T10:17:24.690Z,98921.94
2023-05-01T10:19:53.820Z,98927.38
2023-05-01T10:22:22.514Z,98917.53
2023-05-01T10:24:52.825Z,98924.03
2023-05-01T10:27:25.071Z,98920.63
2023-05-01T10:29:56.658Z,98933.63
2023-05-01T10:32:26.010Z,98922.16
2023-05-01T10:35:02.702Z,98919.59
2023-05-01T10:37:39.506Z,98917.00
2023-05-01T10:40:55.279Z,98910.78
2023-05-01T10:43:28.652Z,98912.03
2023-05-01T10:46:34.699Z,98900.84
2023-05-01T10:49:04.262Z,98911.66
2023-05-01T10:51:33.029Z,98909.28
2023-05-01T10:54:26.078Z,98905.72
2023-05-01T10:56:57.302Z,98900.97
2023-05-01T10:59:27.358Z,98882.94
2023-05-01T11:01:57.464Z,98882.38
2023-05-01T11:04:51.522Z,98868.53
2023-05-01T11:07:22.416Z,98870.59
2023-05-01T11:09:54.443Z,98868.72
2023-05-01T11:12:55.245Z,98873.19
2023-05-01T11:15:32.481Z,98861.56
2023-05-01T11:18:03.920Z,98859.13
2023-05-01T11:20:52.240Z,98863.47
2023-05-01T11:23:23.852Z,98859.22
2023-05-01T11:26:04.849Z,98856.91
2023-05-01T11:28:35.601Z,98845.28
2023-05-01T11:31:04.777Z,98840.38
2023-05-01T11:33:35.733Z,98836.22
2023-05-01T11:36:06.549Z,98818.88
2023-05-01T11:38:35.868Z,98823.31
2023-05-01T11:41:05.446Z,98801.38
2023-05-01T11:43:34.229Z,98802.44
2023-05-01T11:46:05.564Z,98797.25
2023-05-01T11:48:36.131Z,98797.84
2023-05-01T11:51:14.853Z,98797.31
2023-05-01T11:53:43.570Z,98790.72
2023-05-01T11:56:26.378Z,98775.88
2023-05-01T11:58:57.688Z,98778.69
2023-05-01T12:01:36.130Z,98772.91
2023-05-01T12:04:08.204Z,98764.44
2023-05-01T12:06:44.762Z,98758.28
2023-05-01T12:09:20.630Z,98753.53
2023-05-01T12:11:52.725Z,98743.09
2023-05-01T12:14:24.690Z,98753.63
2023-05-01T12:16:54.271Z,98744.75
2023-05-01T12:19:25.224Z,98754.59
2023-05-01T12:22:08.126Z,98746.22
2023-05-01T12:24:38.645Z,98742.66
2023-05-01T12:27:09.288Z,98743.78
2023-05-01T12:29:47.290Z,98734.00
2023-05-01T12:32:17.126Z,98731.09
2023-05-01T12:34:48.990Z,98727.50
2023-05-01T12:37:18.012Z,98716.31
2023-05-01T12:39:47.379Z,98724.03
2023-05-01T12:42:18.119Z,98723.03
2023-05-01T12:44:48.356Z,98709.06
2023-05-01T12:47:17.440Z,98716.63
2023-05-01T12:49:49.043Z,98703.78
2023-05-01T12:52:27.417Z,98696.28
2023-05-01T12:55:05.491Z,98690.81
2023-05-01T12:57:34.431Z,98695.56
2023-05-01T13:00:05.982Z,98695.97
2023-05-01T13:02:35.670Z,98691.78
2023-05-01T13:05:11.823Z,98702.94
2023-05-01T13:07:48.896Z,98688.69
2023-05-01T13:10:32.454Z,98680.66
2023-05-01T13:13:02.043Z,98683.69
2023-05-01T13:15:31.145Z,98673.84
2023-05-01T13:18:06.514Z,98678.66
2023-05-01T13:20:39.266Z,98677.31
2023-05-01T13:23:12.936Z,98673.41
2023-05-01T13:25:41.842Z,98669.28
2023-05-01T13:28:11.745Z,98671.03
2023-05-01T13:30:40.894Z,98663.84
2023-05-01T13:33:12.881Z,98666.19
2023-05-01T13:35:43.275Z,98656.88
2023-05-01T13:38:13.535Z,98654.06
2023-05-01T13:40:43.544Z,98640.78
2023-05-01T13:43:17.187Z,98642.75
2023-05-01T13:45:47.452Z,98649.75
2023-05-01T13:48:20.223Z,98649.03
2023-05-01T13:50:50.624Z,98648.50
2023-05-01T13:53:20.462Z,98646.19
2023-05-01T13:55:52.411Z,98650.09
2023-05-01T13:58:21.411Z,98647.34
2023-05-01T14:00:50.186Z,98642.75
2023-05-01T14:03:19.386Z,98645.94
2023-05-01T14:05:51.622Z,98644.22
2023-05-01T14:08:30.333Z,98637.84
2023-05-01T14:11:00.410Z,98623.69
2023-05-01T14:13:29.843Z,98634.88
2023-05-01T14:15:58.793Z,98626.69
2023-05-01T14:18:28.154Z,98619.03
2023-05-01T14:21:00.591Z,98621.19
2023-05-01T14:23:30.354Z,98614.72
2023-05-01T14:25:59.121Z,98615.44
2023-05-01T14:28:27.815Z,98607.47
2023-05-01T14:30:56.895Z,98620.03
2023-05-01T14:33:26.896Z,98617.13
2023-05-01T14:35:59.863Z,98614.97
2023-05-01T14:38:40.534Z,98610.06
2023-05-01T14:41:14.818Z,98600.47
2023-05-01T14:43:44.509Z,98613.47
2023-05-01T14:46:14.733Z,98619.78
2023-05-01T14:48:44.374Z,98617.69
2023-05-01T14:51:21.534Z,98618.16
2023-05-01T14:53:50.461Z,98625.63
2023-05-01T14:56:20.211Z,98617.63
2023-05-01T14:58:51.678Z,98622.03
2023-05-01T15:01:21.969Z,98624.50
2023-05-01T15:03:50.881Z,98621.53
2023-05-01T15:06:20.999Z,98614.28
2023-05-01T15:08:49.931Z,98617.88
2023-05-01T15:11:20.900Z,98612.41
2023-05-01T15:13:51.267Z,98618.66
2023-05-01T15:16:20.599Z,98626.75
2023-05-01T15:18:49.637Z,98617.28
2023-05-01T15:21:18.437Z,98624.84
2023-05-01T15:23:48.518Z,98624.38
2023-05-01T15:26:17.196Z,98622.47
2023-05-01T15:28:46.502Z,98618.94
2023-05-01T15:31:15.493Z,98617.50
2023-05-01T15:33:45.107Z,98614.28
2023-05-01T15:36:13.773Z,98614.75
2023-05-01T15:38:42.475Z,98610.53
2023-05-01T15:41:13.015Z,98615.47
2023-05-01T15:43:41.606Z,98609.53
2023-05-01T15:46:10.519Z,98612.25
2023-05-01T15:48:39.826Z,98608.22
2023-05-01T15:51:08.473Z,98605.81
2023-05-01T15:53:37.317Z,98606.56
2023-05-01T15:56:09.821Z,98611.00
2023-05-01T15:58:40.625Z,98606.69
2023-05-01T16:01:10.444Z,98600.44
2023-05-01T16:03:46.676Z,98607.50
2023-05-01T16:06:17.267Z,98603.97
2023-05-01T16:08:46.605Z,98601.78
2023-05-01T16:11:15.750Z,98605.44
2023-05-01T16:13:48.841Z,98601.69
2023-05-01T16:16:25.014Z,98607.75
2023-05-01T16:18:57.530Z,98607.38
2023-05-01T16:21:28.838Z,98606.25
2023-05-01T16:23:58.458Z,98606.78
2023-05-01T16:26:32.543Z,98607.38
2023-05-01T16:29:06.601Z,98605.91
2023-05-01T16:31:41.613Z,98601.09
2023-05-01T16:34:14.080Z,98606.19
2023-05-01T16:36:44.164Z,98606.34
2023-05-01T16:39:16.489Z,98605.97
2023-05-01T16:41:52.558Z,98602.13
2023-05-01T16:44:24.745Z,98597.94
2023-05-01T16:46:55.209Z,98598.38
2023-05-01T16:49:28.169Z,98597.31
2023-05-01T16:51:58.601Z,98604.63
2023-05-01T16:54:35.487Z,98597.06
2023-05-01T16:57:04.982Z,98599.44
2023-05-01T16:59:35.697Z,98597.34
2023-05-01T17:02:05.053Z,98600.16
2023-05-01T17:04:34.609Z,98599.78
2023-05-01T17:07:06.046Z,98595.06
2023-05-01T17:09:34.903Z,98594.41
2023-05-01T17:12:06.680Z,98593.66
2023-05-01T17:14:37.872Z,98597.28
2023-05-01T17:17:09.604Z,98594.28
2023-05-01T17:19:39.158Z,98611.38
2023-05-01T17:22:07.976Z,98603.75
2023-05-01T17:24:37.822Z,98606.56
2023-05-01T17:27:07.346Z,98599.53
2023-05-01T17:29:37.698Z,98602.72
2023-05-01T17:32:07.142Z,98600.81
2023-05-01T17:34:35.960Z,98607.22
2023-05-01T17:37:04.805Z,98602.91
2023-05-01T17:39:34.957Z,98600.19
2023-05-01T17:42:04.530Z,98606.97
2023-05-01T17:44:33.691Z,98601.91
2023-05-01T17:47:04.003Z,98606.63
2023-05-01T17:49:33.199Z,98603.56
2023-05-01T17:52:02.486Z,98613.69
2023-05-01T17:54:32.240Z,98609.72
2023-05-01T17:57:04.057Z,98610.47
2023-05-01T17:59:33.822Z,98607.88
2023-05-01T18:02:05.238Z,98613.22
2023-05-01T18:04:36.072Z,98613.28
2023-05-01T18:07:05.888Z,98610.88
2023-05-01T18:09:34.523Z,98610.72
2023-05-01T18:12:03.966Z,98618.66
2023-05-01T18:14:32.904Z,98617.09
2023-05-01T18:17:01.809Z,98613.41
2023-05-01T18:19:31.909Z,98615.75
2023-05-01T18:22:00.738Z,98617.94
2023-05-01T18:24:29.495Z,98621.53
2023-05-01T18:26:59.601Z,98620.81
2023-05-01T18:29:33.051Z,98620.59
2023-05-01T18:32:05.548Z,98621.13
2023-05-01T18:34:36.986Z,98622.81
2023-05-01T18:37:06.336Z,98623.31
2023-05-01T18:39:38.616Z,98633.72
2023-05-01T18:42:07.862Z,98622.19
2023-05-01T18:44:36.882Z,98631.41
2023-05-01T18:47:05.979Z,98627.66
2023-05-01T18:49:36.530Z,98630.56
2023-05-01T18:52:05.931Z,98630.84
2023-05-01T18:54:34.647Z,98630.56
2023-05-01T18:57:03.307Z,98631.72
2023-05-01T18:59:32.219Z,98635.22
2023-05-01T19:02:01.680Z,98638.56
2023-05-01T19:04:30.818Z,98637.13
2023-05-01T19:07:01.122Z,98636.91
2023-05-01T19:09:29.935Z,98634.56
2023-05-01T19:11:58.875Z,98638.09
2023-05-01T19:14:31.065Z,98639.78
2023-05-01T19:17:00.326Z,98636.81
2023-05-01T19:19:29.949Z,98638.44
2023-05-01T19:22:00.401Z,98639.88
2023-05-01T19:24:29.363Z,98641.22
2023-05-01T19:26:58.230Z,98642.31
2023-05-01T19:29:27.315Z,98643.09
2023-05-01T19:31:56.461Z,98645.75
2023-05-01T19:34:32.351Z,98641.16
2023-05-01T19:37:02.959Z,98645.28
2023-05-01T19:39:32.409Z,98645.06
2023-05-01T19:42:03.558Z,98648.06
2023-05-01T19:44:33.143Z,98649.97
2023-05-01T19:47:02.115Z,98649.09
2023-05-01T19:49:31.000Z,98644.94
2023-05-01T19:52:01.559Z,98649.13
2023-05-01T19:54:30.356Z,98651.78
2023-05-01T19:57:00.898Z,98650.78
2023-05-01T19:59:30.750Z,98651.06
2023-05-01T20:02:01.109Z,98646.94
2023-05-01T20:04:30.550Z,98652.81
2023-05-01T20:06:59.418Z,98644.97
2023-05-01T20:09:29.584Z,98648.59
2023-05-01T20:11:58.219Z,98645.91
2023-05-01T20:14:26.896Z,98653.00
2023-05-01T20:16:56.004Z,98672.00
2023-05-01T20:19:24.956Z,98677.88
2023-05-01T20:21:54.287Z,98678.97
2023-05-01T20:24:23.240Z,98674.03
2023-05-01T20:26:55.889Z,98683.97
2023-05-01T20:29:24.633Z,98684.53
2023-05-01T20:31:53.353Z,98689.63
2023-05-01T20:34:23.156Z,98696.44
2023-05-01T20:36:52.148Z,98704.59
2023-05-01T20:39:20.866Z,98705.09
2023-05-01T20:41:49.610Z,98704.28
2023-05-01T20:44:19.741Z,98704.81
2023-05-01T20:46:48.710Z,98711.84
2023-05-01T20:49:17.606Z,98713.78
2023-05-01T20:51:46.271Z,98713.00
2023-05-01T20:54:14.981Z,98717.81
2023-05-01T20:56:43.737Z,98725.97
2023-05-01T20:59:12.453Z,98727.28
2023-05-01T21:01:42.544Z,98734.84
2023-05-01T21:04:11.236Z,98740.50
2023-05-01T21:06:40.034Z,98740.50
2023-05-01T21:09:11.141Z,98742.41
2023-05-01T21:11:41.526Z,98744.31
2023-05-01T21:14:10.592Z,98749.22
2023-05-01T21:16:42.284Z,98753.28
2023-05-01T21:19:13.129Z,98759.19
2023-05-01T21:21:42.050Z,98758.41
2023-05-01T21:24:20.144Z,98754.88
2023-05-01T21:26:48.814Z,98759.47
2023-05-01T21:29:17.881Z,98756.78
2023-05-01T21:31:49.090Z,98761.09
2023-05-01T21:34:20.462Z,98757.56
2023-05-01T21:36:49.294Z,98754.09
2023-05-01T21:39:18.028Z,98761.09
2023-05-01T21:41:49.701Z,98758.69
2023-05-01T21:44:18.953Z,98763.81
2023-05-01T21:46:49.150Z,98758.97
2023-05-01T21:49:23.097Z,98761.91
2023-05-01T21:51:51.749Z,98761.13
2023-05-01T21:54:21.640Z,98760.03
2023-05-01T21:56:50.536Z,98759.22
2023-05-01T21:59:19.529Z,98758.44
2023-05-01T22:01:49.694Z,98767.84
2023-05-01T22:04:19.368Z,98766.53
2023-05-01T22:06:48.291Z,98768.41
2023-05-01T22:09:17.044Z,98767.59
2023-05-01T22:11:45.668Z,98760.59
2023-05-01T22:14:14.494Z,98758.97
2023-05-01T22:16:43.234Z,98759.78
2023-05-01T22:19:13.526Z,98763.81
2023-05-01T22:21:42.190Z,98757.88
2023-05-01T22:24:11.103Z,98758.44
2023-05-01T22:26:39.810Z,98761.16
2023-05-01T22:29:08.603Z,98763.28
2023-05-01T22:31:37.342Z,98761.69
2023-05-01T22:34:06.624Z,98758.16
2023-05-01T22:36:36.703Z,98758.97
2023-05-01T22:39:05.549Z,98764.38
2023-05-01T22:41:34.198Z,98764.38
2023-05-01T22:44:02.843Z,98772.97
2023-05-01T22:46:31.753Z,98776.72
2023-05-01T22:49:03.317Z,98779.97
2023-05-01T22:51:32.546Z,98788.59
2023-05-01T22:54:02.728Z,98782.13
2023-05-01T22:56:31.640Z,98777.03
2023-05-01T22:59:00.632Z,98777.84
2023-05-01T23:01:29.430Z,98783.78
2023-05-01T23:03:58.273Z,98788.09
2023-05-01T23:06:27.955Z,98787.00
2023-05-01T23:08:57.135Z,98785.13
2023-05-01T23:11:33.314Z,98785.94
2023-05-01T23:14:03.009Z,98790.25
2023-05-01T23:16:41.534Z,98792.94
2023-05-01T23:19:22.448Z,98795.91
2023-05-01T23:22:06.247Z,98791.31
2023-05-01T23:24:44.770Z,98792.38
2023-05-01T23:27:17.318Z,98794.00
2023-05-01T23:29:56.561Z,98793.72
2023-05-01T23:32:28.301Z,98789.16
2023-05-01T23:35:04.344Z,98784.56
2023-05-01T23:37:33.193Z,98798.25
2023-05-01T23:40:02.297Z,98789.91
2023-05-01T23:42:32.994Z,98783.19
2023-05-01T23:45:01.829Z,98790.72
2023-05-01T23:47:31.670Z,98788.03
2023-05-01T23:50:00.725Z,98784.25
2023-05-01T23:52:29.797Z,98779.38
2023-05-01T23:54:58.519Z,98784.50
2023-05-01T23:57:27.552Z,98785.28
2023-05-01T23:59:58.093Z,98786.66
